Terminal Aerodrome Forecast
Issued by NWS

Home | Current Version | Previous Version | Text Only | Print | Product List | Glossary On
Versions: 1 2 3 4 5 6 7 8 9 10 11 12 13 14 15 16 17 18 19 20 21 22 23
000
FTUS43 KLSX 020000 AAA
TAFUIN
TAF AMD
KUIN 020040Z 0201/0224 34022G32KT 3SM -SN BR OVC012
      TEMPO 0201/0205 1SM -SN
     FM020500 34022G32KT 6SM -SN OVC012
     FM021300 33012KT P6SM OVC012=

USA.gov is the U.S. government's official web portal to all federal, state and local government web resources and services.